createdAt,value
2018-02-11T00:00:22.033Z,4.30
2018-02-11T00:02:50.341Z,4.30
2018-02-11T00:05:17.847Z,4.30
2018-02-11T00:07:45.768Z,4.30
2018-02-11T00:10:14.488Z,4.30
2018-02-11T00:12:42.026Z,4.20
2018-02-11T00:15:09.579Z,4.20
2018-02-11T00:17:37.123Z,4.30
2018-02-11T00:20:04.790Z,4.20
2018-02-11T00:22:32.330Z,4.10
2018-02-11T00:25:00.603Z,4.20
2018-02-11T00:27:29.024Z,4.20
2018-02-11T00:29:56.550Z,4.20
2018-02-11T00:32:24.318Z,4.20
2018-02-11T00:34:51.844Z,4.10
2018-02-11T00:37:25.059Z,4.10
2018-02-11T00:39:52.601Z,4.10
2018-02-11T00:42:21.034Z,4.10
2018-02-11T00:44:48.577Z,4.10
2018-02-11T00:47:16.153Z,4.10
2018-02-11T00:49:43.696Z,4.00
2018-02-11T00:52:11.209Z,4.00
2018-02-11T00:54:38.773Z,4.00
2018-02-11T00:57:06.466Z,4.00
2018-02-11T00:59:34.766Z,4.00
2018-02-11T01:02:02.306Z,4.00
2018-02-11T01:04:29.883Z,4.00
2018-02-11T01:06:57.656Z,4.00
2018-02-11T01:09:25.279Z,4.00
2018-02-11T01:11:52.778Z,4.00
2018-02-11T01:14:20.328Z,3.90
2018-02-11T01:16:48.869Z,3.90
2018-02-11T01:19:16.474Z,3.90
2018-02-11T01:21:44.383Z,3.90
2018-02-11T01:24:11.906Z,4.10
2018-02-11T01:26:39.525Z,4.20
2018-02-11T01:29:07.947Z,4.10
2018-02-11T01:31:35.462Z,4.10
2018-02-11T01:34:02.989Z,4.00
2018-02-11T01:36:30.493Z,3.90
2018-02-11T01:38:58.789Z,3.80
2018-02-11T01:41:26.387Z,3.70
2018-02-11T01:43:53.945Z,3.80
2018-02-11T01:46:21.483Z,3.80
2018-02-11T01:48:49.114Z,3.80
2018-02-11T01:51:17.424Z,3.80
2018-02-11T01:53:45.372Z,3.80
2018-02-11T01:56:12.970Z,3.80
2018-02-11T01:58:40.471Z,3.80
2018-02-11T02:01:08.743Z,3.90
2018-02-11T02:03:36.232Z,3.90
2018-02-11T02:06:03.897Z,3.80
2018-02-11T02:08:31.390Z,3.80
2018-02-11T02:10:58.916Z,3.80
2018-02-11T02:13:26.445Z,3.80
2018-02-11T02:15:54.112Z,3.70
2018-02-11T02:18:21.662Z,3.70
2018-02-11T02:20:49.391Z,3.70
2018-02-11T02:23:16.878Z,3.60
2018-02-11T02:25:45.193Z,3.60
2018-02-11T02:28:12.837Z,3.60
2018-02-11T02:30:40.705Z,3.60
2018-02-11T02:33:08.369Z,3.50
2018-02-11T02:35:36.030Z,3.50
2018-02-11T02:38:03.627Z,3.40
2018-02-11T02:40:31.155Z,3.40
2018-02-11T02:42:58.808Z,3.40
2018-02-11T02:45:26.381Z,3.40
2018-02-11T02:47:53.927Z,3.40
2018-02-11T02:50:22.255Z,3.40
2018-02-11T02:52:49.784Z,3.40
2018-02-11T02:55:17.872Z,3.40
2018-02-11T02:57:45.390Z,3.50
2018-02-11T03:00:13.677Z,3.40
2018-02-11T03:02:41.174Z,3.40
2018-02-11T03:05:08.772Z,3.40
2018-02-11T03:07:36.488Z,3.40
2018-02-11T03:10:04.152Z,3.40
2018-02-11T03:12:31.656Z,3.50
2018-02-11T03:14:59.192Z,3.40
2018-02-11T03:17:26.804Z,3.50
2018-02-11T03:19:54.330Z,3.40
2018-02-11T03:22:21.845Z,3.40
2018-02-11T03:24:49.405Z,3.50
2018-02-11T03:27:17.124Z,3.60
2018-02-11T03:29:44.735Z,3.60
2018-02-11T03:32:12.511Z,3.50
2018-02-11T03:34:40.051Z,3.50
2018-02-11T03:37:07.574Z,3.50
2018-02-11T03:39:35.862Z,3.40
2018-02-11T03:42:04.167Z,3.40
2018-02-11T03:44:32.574Z,3.40
2018-02-11T03:47:00.103Z,3.40
2018-02-11T03:49:27.643Z,3.40
2018-02-11T03:51:55.224Z,3.40
2018-02-11T03:54:22.753Z,3.40
2018-02-11T03:56:50.514Z,3.30
2018-02-11T03:59:18.801Z,3.30
2018-02-11T04:01:47.181Z,3.30
2018-02-11T04:04:15.482Z,3.20
2018-02-11T04:06:43.036Z,3.20
2018-02-11T04:09:10.602Z,3.30
2018-02-11T04:11:38.354Z,3.20
2018-02-11T04:14:06.846Z,3.10
2018-02-11T04:16:34.423Z,3.10
2018-02-11T04:19:01.942Z,2.90
2018-02-11T04:21:29.615Z,2.80
2018-02-11T04:23:57.511Z,2.70
2018-02-11T04:26:25.182Z,2.60
2018-02-11T04:28:52.687Z,2.50
2018-02-11T04:31:20.375Z,2.50
2018-02-11T04:33:47.913Z,2.50
2018-02-11T04:36:15.551Z,2.50
2018-02-11T04:38:43.066Z,2.50
2018-02-11T04:41:10.579Z,2.50
2018-02-11T04:43:38.862Z,2.60
2018-02-11T04:46:06.414Z,2.60
2018-02-11T04:48:34.045Z,2.70
2018-02-11T04:51:01.584Z,2.70
2018-02-11T04:53:29.347Z,2.80
2018-02-11T04:55:57.129Z,2.80
2018-02-11T04:58:24.699Z,2.80
2018-02-11T05:00:52.665Z,2.90
2018-02-11T05:03:20.190Z,3.00
2018-02-11T05:05:47.809Z,3.10
2018-02-11T05:08:15.461Z,3.10
2018-02-11T05:10:42.952Z,3.10
2018-02-11T05:13:10.485Z,3.20
2018-02-11T05:15:38.133Z,3.20
2018-02-11T05:18:05.667Z,3.30
2018-02-11T05:20:33.172Z,3.30
2018-02-11T05:23:00.804Z,3.20
2018-02-11T05:25:28.351Z,3.10
2018-02-11T05:27:56.493Z,3.10
2018-02-11T05:30:24.012Z,3.10
2018-02-11T05:32:51.776Z,3.10
2018-02-11T05:35:19.274Z,3.00
2018-02-11T05:37:46.847Z,3.00
2018-02-11T05:40:14.365Z,3.00
2018-02-11T05:42:41.971Z,3.00
2018-02-11T05:45:09.579Z,3.10
2018-02-11T05:47:37.854Z,3.00
2018-02-11T05:50:05.370Z,3.00
2018-02-11T05:52:33.383Z,3.00
2018-02-11T05:55:00.909Z,3.10
2018-02-11T05:57:28.446Z,3.10
2018-02-11T05:59:56.086Z,3.20
2018-02-11T06:02:23.658Z,3.30
2018-02-11T06:04:51.893Z,3.20
2018-02-11T06:07:19.432Z,3.20
2018-02-11T06:09:47.160Z,3.20
2018-02-11T06:12:15.595Z,3.10
2018-02-11T06:14:43.102Z,3.10
2018-02-11T06:17:10.619Z,3.10
2018-02-11T06:19:38.232Z,3.10
2018-02-11T06:22:06.449Z,3.20
2018-02-11T06:24:33.966Z,3.10
2018-02-11T06:27:01.715Z,3.10
2018-02-11T06:29:29.231Z,3.10
2018-02-11T06:31:56.758Z,3.10
2018-02-11T06:34:24.258Z,3.00
2018-02-11T06:36:51.760Z,3.00
2018-02-11T06:39:19.310Z,3.10
2018-02-11T06:41:46.935Z,3.10
2018-02-11T06:44:14.542Z,3.10
2018-02-11T06:46:42.173Z,3.10
2018-02-11T06:49:09.711Z,3.10
2018-02-11T06:51:37.298Z,3.20
2018-02-11T06:54:04.850Z,3.20
2018-02-11T06:56:32.512Z,3.20
2018-02-11T06:59:00.323Z,3.10
2018-02-11T07:01:27.849Z,3.30
2018-02-11T07:03:56.710Z,3.30
2018-02-11T07:06:24.227Z,3.30
2018-02-11T07:08:51.885Z,3.30
2018-02-11T07:11:19.382Z,3.40
2018-02-11T07:13:46.964Z,3.40
2018-02-11T07:16:14.500Z,3.40
2018-02-11T07:18:42.007Z,3.50
2018-02-11T07:21:10.935Z,3.70
2018-02-11T07:23:38.553Z,3.60
2018-02-11T07:26:06.828Z,3.90
2018-02-11T07:28:35.828Z,4.00
2018-02-11T07:31:04.105Z,4.30
2018-02-11T07:33:33.345Z,4.30
2018-02-11T07:36:00.866Z,4.70
2018-02-11T07:38:28.414Z,5.00
2018-02-11T07:40:55.969Z,5.30
2018-02-11T07:43:23.558Z,5.60
2018-02-11T07:45:51.784Z,5.60
2018-02-11T07:48:19.352Z,5.50
2018-02-11T07:50:46.989Z,5.50
2018-02-11T07:55:48.514Z,5.30
2018-02-11T07:58:16.032Z,5.20
2018-02-11T08:00:43.638Z,5.00
2018-02-11T08:03:11.952Z,4.90
2018-02-11T08:05:39.563Z,4.70
2018-02-11T08:08:07.196Z,4.70
2018-02-11T08:10:34.841Z,4.70
2018-02-11T08:13:02.382Z,4.60
2018-02-11T08:15:29.904Z,4.50
2018-02-11T08:17:58.185Z,4.50
2018-02-11T08:20:25.945Z,4.50
2018-02-11T08:22:53.990Z,4.60
2018-02-11T08:25:21.629Z,4.50
2018-02-11T08:27:49.142Z,4.50
2018-02-11T08:30:17.444Z,4.40
2018-02-11T08:32:44.961Z,4.40
2018-02-11T08:35:13.267Z,4.50
2018-02-11T08:37:40.817Z,4.50
2018-02-11T08:40:09.184Z,4.50
2018-02-11T08:42:37.460Z,4.70
2018-02-11T08:45:05.922Z,4.70
2018-02-11T08:47:33.546Z,4.70
2018-02-11T08:50:01.114Z,4.80
2018-02-11T08:52:30.650Z,5.00
2018-02-11T08:54:58.641Z,5.00
2018-02-11T08:57:26.920Z,5.30
2018-02-11T08:59:54.503Z,5.20
2018-02-11T09:02:22.203Z,5.40
2018-02-11T09:04:49.810Z,5.30
2018-02-11T09:07:18.148Z,5.50
2018-02-11T09:09:45.663Z,5.50
2018-02-11T09:12:13.413Z,5.60
2018-02-11T09:14:40.920Z,5.60
2018-02-11T09:17:08.926Z,5.70
2018-02-11T09:19:36.577Z,5.90
2018-02-11T09:22:04.177Z,6.00
2018-02-11T09:24:31.703Z,6.10
2018-02-11T09:26:59.435Z,6.10
2018-02-11T09:29:26.986Z,5.90
2018-02-11T09:31:54.522Z,5.90
2018-02-11T09:34:22.803Z,6.00
2018-02-11T09:36:50.394Z,6.00
2018-02-11T09:39:17.978Z,6.00
2018-02-11T09:41:45.567Z,6.00
2018-02-11T09:44:13.115Z,6.00
2018-02-11T09:46:40.629Z,6.10
2018-02-11T09:49:08.152Z,6.30
2018-02-11T09:51:36.407Z,6.40
2018-02-11T09:54:04.679Z,6.30
2018-02-11T09:56:32.204Z,6.30
2018-02-11T09:58:59.724Z,6.30
2018-02-11T10:01:27.255Z,6.30
2018-02-11T10:03:54.847Z,6.40
2018-02-11T10:06:22.417Z,6.30
2018-02-11T10:08:49.967Z,6.40
2018-02-11T10:11:17.646Z,6.30
2018-02-11T10:13:45.346Z,6.40
2018-02-11T10:16:12.878Z,6.40
2018-02-11T10:18:40.405Z,6.60
2018-02-11T10:21:08.726Z,6.70
2018-02-11T10:23:36.245Z,7.00
2018-02-11T10:26:03.810Z,7.10
2018-02-11T10:28:31.341Z,7.10
2018-02-11T10:30:59.686Z,7.00
2018-02-11T10:33:28.319Z,7.20
2018-02-11T10:35:55.878Z,7.20
2018-02-11T10:38:23.414Z,7.40
2018-02-11T10:40:51.711Z,7.80
2018-02-11T10:43:21.888Z,7.90
2018-02-11T10:45:49.569Z,7.80
2018-02-11T10:48:17.957Z,7.70
2018-02-11T10:50:45.534Z,7.70
2018-02-11T10:53:13.179Z,7.80
2018-02-11T10:55:41.448Z,7.40
2018-02-11T10:58:09.005Z,7.40
2018-02-11T11:00:37.674Z,7.50
2018-02-11T11:03:05.367Z,7.50
2018-02-11T11:05:33.951Z,7.20
2018-02-11T11:08:02.283Z,7.10
2018-02-11T11:10:29.809Z,7.10
2018-02-11T11:12:58.094Z,7.10
2018-02-11T11:15:25.630Z,7.20
2018-02-11T11:17:53.189Z,7.00
2018-02-11T11:20:20.691Z,6.90
2018-02-11T11:22:48.218Z,7.10
2018-02-11T11:25:15.859Z,6.80
2018-02-11T11:27:44.152Z,6.80
2018-02-11T11:30:11.742Z,6.70
2018-02-11T11:32:39.279Z,6.90
2018-02-11T11:35:06.931Z,6.90
2018-02-11T11:37:35.485Z,7.10
2018-02-11T11:40:03.017Z,7.10
2018-02-11T11:42:30.763Z,7.10
2018-02-11T11:44:58.303Z,7.20
2018-02-11T11:47:25.838Z,7.30
2018-02-11T11:49:53.370Z,7.20
2018-02-11T11:52:21.732Z,7.20
2018-02-11T11:54:50.405Z,7.10
2018-02-11T11:57:17.902Z,7.10
2018-02-11T11:59:45.602Z,6.80
2018-02-11T12:02:13.916Z,6.50
2018-02-11T12:04:41.506Z,6.50
2018-02-11T12:07:09.717Z,6.50
2018-02-11T12:09:37.231Z,6.40
2018-02-11T12:12:04.868Z,6.40
2018-02-11T12:14:32.528Z,6.40
2018-02-11T12:17:00.191Z,6.40
2018-02-11T12:19:28.949Z,6.60
2018-02-11T12:21:57.241Z,6.60
2018-02-11T12:24:24.761Z,6.60
2018-02-11T12:26:52.272Z,6.80
2018-02-11T12:29:19.822Z,6.90
2018-02-11T12:31:47.658Z,6.90
2018-02-11T12:34:15.408Z,6.90
2018-02-11T12:36:43.743Z,6.80
2018-02-11T12:39:11.425Z,6.70
2018-02-11T12:41:39.864Z,6.50
2018-02-11T12:44:07.413Z,6.10
2018-02-11T12:46:35.818Z,6.10
2018-02-11T12:49:03.386Z,6.00
2018-02-11T12:51:31.043Z,6.00
2018-02-11T12:53:58.721Z,6.00
2018-02-11T12:56:26.272Z,5.70
2018-02-11T12:58:53.924Z,5.90
2018-02-11T13:01:21.419Z,5.90
2018-02-11T13:03:48.949Z,5.90
2018-02-11T13:06:16.475Z,5.90
2018-02-11T13:08:44.033Z,5.80
2018-02-11T13:11:12.321Z,5.70
2018-02-11T13:13:40.707Z,5.80
2018-02-11T13:16:08.276Z,5.80
2018-02-11T13:18:35.779Z,5.80
2018-02-11T13:21:03.419Z,5.60
2018-02-11T13:23:31.789Z,5.50
2018-02-11T13:25:59.925Z,5.50
2018-02-11T13:28:28.518Z,5.70
2018-02-11T13:30:56.620Z,5.70
2018-02-11T13:33:24.270Z,5.50
2018-02-11T13:35:52.056Z,5.40
2018-02-11T13:38:20.100Z,5.40
2018-02-11T13:40:47.688Z,5.40
2018-02-11T13:43:15.234Z,5.30
2018-02-11T13:45:43.276Z,5.30
2018-02-11T13:48:11.430Z,5.20
2018-02-11T13:50:39.746Z,5.00
2018-02-11T13:53:07.301Z,5.00
2018-02-11T13:55:35.009Z,5.00
2018-02-11T13:58:02.677Z,5.00
2018-02-11T14:00:30.293Z,4.90
2018-02-11T14:02:57.890Z,4.70
2018-02-11T14:05:25.619Z,4.70
2018-02-11T14:07:54.330Z,4.60
2018-02-11T14:10:22.458Z,4.60
2018-02-11T14:12:50.320Z,4.70
2018-02-11T14:15:17.878Z,4.50
2018-02-11T14:17:46.258Z,4.30
2018-02-11T14:20:13.840Z,4.30
2018-02-11T14:22:41.881Z,4.40
2018-02-11T14:25:10.238Z,4.30
2018-02-11T14:27:38.630Z,4.20
2018-02-11T14:30:06.280Z,4.30
2018-02-11T14:32:33.849Z,4.20
2018-02-11T14:35:02.902Z,4.20
2018-02-11T14:37:30.580Z,4.10
2018-02-11T14:39:58.084Z,4.00
2018-02-11T14:42:25.658Z,3.90
2018-02-11T14:44:53.965Z,3.90
2018-02-11T14:47:21.973Z,4.00
2018-02-11T14:49:50.131Z,4.00
2018-02-11T14:52:17.881Z,3.90
2018-02-11T14:54:45.429Z,3.80
2018-02-11T14:57:13.049Z,3.70
2018-02-11T14:59:40.939Z,3.70
2018-02-11T15:02:08.535Z,3.80
2018-02-11T15:04:36.050Z,3.80
2018-02-11T15:07:03.635Z,3.90
2018-02-11T15:09:31.201Z,3.80
2018-02-11T15:11:58.807Z,3.80
2018-02-11T15:14:27.116Z,3.80
2018-02-11T15:16:54.683Z,3.80
2018-02-11T15:19:22.223Z,3.90
2018-02-11T15:21:49.726Z,3.90
2018-02-11T15:24:18.090Z,3.80
2018-02-11T15:26:45.740Z,3.90
2018-02-11T15:29:13.518Z,3.90
2018-02-11T15:31:41.059Z,3.90
2018-02-11T15:34:08.844Z,3.90
2018-02-11T15:36:36.642Z,4.00
2018-02-11T15:39:04.181Z,4.00
2018-02-11T15:41:31.750Z,3.90
2018-02-11T15:43:59.262Z,3.90
2018-02-11T15:46:27.223Z,3.90
2018-02-11T15:48:55.628Z,4.00
2018-02-11T15:51:23.391Z,4.00
2018-02-11T15:53:51.232Z,4.00
2018-02-11T15:56:18.790Z,3.90
2018-02-11T15:58:47.311Z,4.00
2018-02-11T16:01:14.864Z,3.90
2018-02-11T16:03:42.429Z,4.00
2018-02-11T16:06:10.132Z,4.10
2018-02-11T16:08:37.677Z,4.20
2018-02-11T16:11:05.308Z,4.10
2018-02-11T16:13:32.837Z,4.20
2018-02-11T16:16:00.529Z,4.20
2018-02-11T16:18:28.174Z,4.20
2018-02-11T16:20:56.095Z,4.30
2018-02-11T16:23:23.625Z,4.30
2018-02-11T16:25:51.145Z,4.30
2018-02-11T16:28:19.462Z,4.20
2018-02-11T16:30:47.007Z,4.20
2018-02-11T16:33:14.686Z,4.30
2018-02-11T16:35:42.207Z,4.40
2018-02-11T16:38:09.836Z,4.40
2018-02-11T16:40:37.502Z,4.50
2018-02-11T16:43:05.092Z,4.60
2018-02-11T16:45:33.332Z,4.60
2018-02-11T16:48:01.249Z,4.60
2018-02-11T16:50:28.794Z,4.60
2018-02-11T16:52:56.332Z,4.70
2018-02-11T16:55:23.859Z,4.70
2018-02-11T16:57:51.396Z,4.70
2018-02-11T17:00:18.942Z,4.70
2018-02-11T17:02:46.652Z,4.60
2018-02-11T17:05:14.301Z,4.70
2018-02-11T17:07:42.595Z,4.60
2018-02-11T17:10:10.135Z,4.70
2018-02-11T17:12:38.004Z,4.60
2018-02-11T17:15:05.575Z,4.70
2018-02-11T17:17:33.133Z,4.60
2018-02-11T17:20:00.808Z,4.60
2018-02-11T17:22:28.328Z,4.60
2018-02-11T17:24:55.847Z,4.70
2018-02-11T17:27:23.375Z,4.70
2018-02-11T17:29:50.921Z,4.70
2018-02-11T17:32:18.427Z,4.70
2018-02-11T17:34:46.079Z,4.60
2018-02-11T17:37:13.653Z,4.40
2018-02-11T17:39:41.180Z,4.40
2018-02-11T17:42:08.888Z,4.30
2018-02-11T17:44:36.412Z,4.20
2018-02-11T17:47:04.005Z,4.10
2018-02-11T17:49:31.534Z,4.10
2018-02-11T17:51:59.083Z,4.10
2018-02-11T17:54:26.619Z,4.20
2018-02-11T17:56:54.150Z,4.30
2018-02-11T17:59:21.823Z,4.40
2018-02-11T18:01:49.441Z,4.50
2018-02-11T18:04:16.974Z,4.60
2018-02-11T18:06:44.543Z,4.70
2018-02-11T18:09:12.134Z,4.80
2018-02-11T18:11:40.541Z,4.70
2018-02-11T18:14:08.305Z,4.70
2018-02-11T18:16:35.802Z,4.80
2018-02-11T18:19:03.329Z,4.80
2018-02-11T18:21:30.937Z,4.80
2018-02-11T18:23:59.361Z,4.80
2018-02-11T18:26:27.385Z,4.80
2018-02-11T18:28:54.913Z,4.80
2018-02-11T18:31:22.713Z,4.80
2018-02-11T18:33:51.020Z,4.80
2018-02-11T18:36:18.568Z,4.70
2018-02-11T18:38:47.121Z,4.70
2018-02-11T18:41:15.336Z,4.70
2018-02-11T18:43:42.988Z,4.80
2018-02-11T18:46:10.540Z,4.90
2018-02-11T18:48:38.110Z,4.80
2018-02-11T18:51:05.622Z,4.70
2018-02-11T18:53:33.170Z,4.70
2018-02-11T18:56:00.693Z,4.70
2018-02-11T18:58:28.977Z,4.80
2018-02-11T19:00:57.248Z,4.80
2018-02-11T19:03:25.561Z,4.70
2018-02-11T19:05:53.116Z,4.70
2018-02-11T19:08:20.695Z,4.80
2018-02-11T19:10:48.247Z,4.70
2018-02-11T19:13:15.772Z,4.60
2018-02-11T19:15:43.301Z,4.60
2018-02-11T19:18:11.449Z,4.60
2018-02-11T19:20:38.948Z,4.70
2018-02-11T19:23:07.350Z,4.70
2018-02-11T19:25:34.929Z,4.70
2018-02-11T19:28:02.460Z,4.70
2018-02-11T19:30:30.060Z,4.80
2018-02-11T19:32:57.636Z,4.70
2018-02-11T19:35:25.183Z,4.70
2018-02-11T19:37:52.696Z,4.80
2018-02-11T19:40:20.244Z,4.80
2018-02-11T19:42:47.784Z,4.80
2018-02-11T19:45:15.828Z,4.80
2018-02-11T19:47:44.187Z,4.90
2018-02-11T19:50:11.690Z,4.90
2018-02-11T19:52:39.224Z,4.90
2018-02-11T19:55:06.780Z,4.90
2018-02-11T19:57:35.227Z,4.90
2018-02-11T20:00:02.781Z,4.90
2018-02-11T20:02:30.418Z,4.90
2018-02-11T20:04:58.033Z,4.80
2018-02-11T20:07:25.758Z,4.80
2018-02-11T20:09:53.352Z,4.80
2018-02-11T20:12:20.843Z,4.70
2018-02-11T20:14:48.977Z,4.60
2018-02-11T20:17:16.592Z,4.50
2018-02-11T20:19:44.971Z,4.30
2018-02-11T20:22:12.597Z,4.30
2018-02-11T20:24:41.071Z,4.20
2018-02-11T20:27:09.042Z,4.20
2018-02-11T20:29:36.832Z,4.20
2018-02-11T20:32:04.367Z,4.20
2018-02-11T20:34:31.897Z,4.20
2018-02-11T20:37:00.166Z,4.20
2018-02-11T20:39:27.714Z,4.30
2018-02-11T20:41:55.243Z,4.30
2018-02-11T20:44:22.889Z,4.30
2018-02-11T20:46:50.452Z,4.20
2018-02-11T20:49:18.090Z,4.20
2018-02-11T20:51:45.650Z,4.20
2018-02-11T20:54:13.433Z,4.10
2018-02-11T20:56:40.981Z,4.00
2018-02-11T20:59:08.658Z,3.90
2018-02-11T21:01:37.034Z,3.70
2018-02-11T21:04:05.083Z,3.70
2018-02-11T21:06:33.563Z,3.70
2018-02-11T21:09:01.150Z,3.60
2018-02-11T21:11:30.050Z,3.50
2018-02-11T21:13:57.645Z,3.50
2018-02-11T21:16:26.254Z,3.40
2018-02-11T21:18:53.755Z,3.40
2018-02-11T21:21:22.324Z,3.40
2018-02-11T21:23:50.686Z,3.40
2018-02-11T21:26:18.599Z,3.30
2018-02-11T21:28:46.322Z,3.40
2018-02-11T21:31:13.970Z,3.40
2018-02-11T21:33:43.078Z,3.30
2018-02-11T21:36:11.588Z,3.30
2018-02-11T21:38:40.427Z,3.30
2018-02-11T21:41:07.991Z,3.20
2018-02-11T21:43:36.607Z,3.20
2018-02-11T21:46:04.237Z,3.20
2018-02-11T21:48:32.503Z,3.20
2018-02-11T21:51:00.121Z,3.20
2018-02-11T21:53:27.661Z,3.20
2018-02-11T21:55:55.398Z,3.20
2018-02-11T21:58:22.991Z,3.20
2018-02-11T22:00:50.527Z,3.20
2018-02-11T22:03:18.774Z,3.20
2018-02-11T22:05:46.292Z,3.20
2018-02-11T22:08:14.050Z,3.20
2018-02-11T22:10:41.576Z,3.10
2018-02-11T22:13:09.854Z,3.00
2018-02-11T22:15:37.680Z,3.00
2018-02-11T22:18:05.241Z,2.90
2018-02-11T22:20:32.876Z,2.80
2018-02-11T22:23:00.402Z,2.80
2018-02-11T22:25:27.929Z,2.70
2018-02-11T22:27:55.717Z,2.70
2018-02-11T22:30:23.532Z,2.70
2018-02-11T22:32:51.071Z,2.60
2018-02-11T22:35:18.572Z,2.60
2018-02-11T22:37:46.075Z,2.60
2018-02-11T22:40:14.339Z,2.80
2018-02-11T22:42:41.839Z,2.80
2018-02-11T22:45:09.423Z,2.90
2018-02-11T22:47:37.131Z,3.00
2018-02-11T22:50:04.722Z,3.10
2018-02-11T22:52:32.280Z,3.10
2018-02-11T22:55:00.355Z,3.10
2018-02-11T22:57:27.885Z,3.10
2018-02-11T22:59:55.470Z,3.10
2018-02-11T23:04:57.002Z,3.00
2018-02-11T23:07:24.585Z,3.00
2018-02-11T23:09:52.100Z,2.90
2018-02-11T23:12:19.633Z,2.90
2018-02-11T23:14:47.787Z,2.90
2018-02-11T23:17:15.312Z,2.80
2018-02-11T23:19:50.544Z,2.80
2018-02-11T23:22:18.115Z,2.80
2018-02-11T23:24:45.632Z,2.80
2018-02-11T23:27:13.137Z,2.80
2018-02-11T23:29:40.713Z,2.70
2018-02-11T23:32:09.072Z,2.60
2018-02-11T23:34:37.644Z,2.60
2018-02-11T23:37:05.625Z,2.60
2018-02-11T23:39:33.911Z,2.50
2018-02-11T23:42:01.477Z,2.50
2018-02-11T23:44:29.110Z,2.40
2018-02-11T23:46:57.753Z,2.40
2018-02-11T23:49:25.260Z,2.40
2018-02-11T23:51:53.538Z,2.30
2018-02-11T23:54:21.559Z,2.30
2018-02-11T23:56:49.122Z,2.30
2018-02-11T23:59:16.686Z,2.20
